Time;durP1;ratioP1;P1;durP2;ratioP2;P2;SDS_P1;SDS_P2;PMS_P1;PMS_P2;Temp;Humidity;BMP_temperature;BMP_pressure;BME280_temperature;BME280_humidity;BME280_pressure;Samples;Min_cycle;Max_cycle;Signal;HPM_P1;HPM_P2
2023/01/19 00:02:15;;;;;;;;;;;;;;;1.39;100.00;100055.06;5066615;28;19920;-62
2023/01/19 00:04:40;;;;;;;;;;;;;;;1.43;100.00;100045.53;5067313;28;20018;-59
2023/01/19 00:07:08;;;;;;;;;;;;;;;1.38;100.00;100042.56;5064214;28;19928;-60
2023/01/19 00:09:37;;;;;;;;;;;;;;;1.41;100.00;100038.63;5069020;28;19979;-61
2023/01/19 00:12:02;;;;;;;;;;;;;;;1.40;100.00;100055.91;5067417;28;19981;-60
2023/01/19 00:14:28;;;;;;;;;;;;;;;1.35;100.00;100042.94;5067441;28;19924;-60
2023/01/19 00:16:53;;;;;;;;;;;;;;;1.32;100.00;100047.88;5066866;28;19974;-59
2023/01/19 00:19:18;;;;;;;;;;;;;;;1.25;100.00;100045.94;5066980;28;20367;-61
2023/01/19 00:21:43;;;;;;;;;;;;;;;1.26;100.00;100047.63;5066726;28;19958;-62
2023/01/19 00:24:09;;;;;;;;;;;;;;;1.28;100.00;100048.28;5066789;28;19916;-60
2023/01/19 00:26:34;;;;;;;;;;;;;;;1.32;100.00;100053.31;5067549;28;19921;-60
2023/01/19 00:28:59;;;;;;;;;;;;;;;1.34;100.00;100053.97;5064337;28;20436;-60
2023/01/19 00:31:25;;;;;;;;;;;;;;;1.38;100.00;100052.56;5066439;28;19924;-60
2023/01/19 00:33:51;;;;;;;;;;;;;;;1.42;100.00;100045.72;5067425;28;19951;-59
2023/01/19 00:36:16;;;;;;;;;;;;;;;1.35;100.00;100055.63;5064861;28;20023;-61
2023/01/19 00:38:42;;;;;;;;;;;;;;;1.37;100.00;100053.56;5064359;28;20000;-59
2023/01/19 00:41:07;;;;;;;;;;;;;;;1.31;100.00;100055.16;5066066;28;19924;-64
2023/01/19 00:43:32;;;;;;;;;;;;;;;1.18;100.00;100049.63;5064479;28;19992;-60
2023/01/19 00:45:57;;;;;;;;;;;;;;;1.19;100.00;100054.81;5065578;28;19921;-59
2023/01/19 00:48:22;;;;;;;;;;;;;;;1.17;100.00;100037.13;5065147;28;19927;-62
2023/01/19 00:50:48;;;;;;;;;;;;;;;1.21;100.00;100031.13;5065966;28;19921;-60
2023/01/19 00:53:13;;;;;;;;;;;;;;;1.12;100.00;100040.41;5066547;28;20374;-61
2023/01/19 00:55:38;;;;;;;;;;;;;;;1.01;100.00;100032.75;5067096;28;20370;-60
2023/01/19 00:58:03;;;;;;;;;;;;;;;0.94;100.00;100043.50;5065494;28;20500;-60
2023/01/19 01:00:28;;;;;;;;;;;;;;;0.94;100.00;100043.50;5067471;28;19920;-60
2023/01/19 01:02:54;;;;;;;;;;;;;;;0.88;100.00;100051.53;5066589;28;19947;-60
2023/01/19 01:05:19;;;;;;;;;;;;;;;0.89;100.00;100042.38;5063675;28;19966;-62
2023/01/19 01:07:45;;;;;;;;;;;;;;;0.95;100.00;100045.16;5063492;28;19981;-60
2023/01/19 01:10:13;;;;;;;;;;;;;;;1.08;100.00;100038.25;5066957;28;19923;-60
2023/01/19 01:12:38;;;;;;;;;;;;;;;1.09;100.00;100045.34;5061044;28;20402;-59
2023/01/19 01:15:05;;;;;;;;;;;;;;;1.07;100.00;100055.53;5067470;28;19927;-60
2023/01/19 01:17:31;;;;;;;;;;;;;;;1.21;100.00;100060.03;5066571;28;19916;-61
2023/01/19 01:19:56;;;;;;;;;;;;;;;1.28;100.00;100058.28;5064987;28;19920;-61
2023/01/19 01:22:21;;;;;;;;;;;;;;;1.17;100.00;100062.31;5064180;28;20541;-61
2023/01/19 01:24:46;;;;;;;;;;;;;;;1.16;100.00;100070.59;5066302;28;19921;-60
2023/01/19 01:27:12;;;;;;;;;;;;;;;1.19;100.00;100071.06;5065467;28;19924;-59
2023/01/19 01:29:39;;;;;;;;;;;;;;;1.35;100.00;100067.28;5065604;28;19952;-62
2023/01/19 01:32:05;;;;;;;;;;;;;;;1.41;100.00;100055.69;5065532;28;19974;-61
2023/01/19 01:34:30;;;;;;;;;;;;;;;1.33;100.00;100049.59;5067069;28;19917;-60
2023/01/19 01:36:55;;;;;;;;;;;;;;;1.32;100.00;100056.88;5060273;28;19927;-60
2023/01/19 01:39:21;;;;;;;;;;;;;;;1.32;100.00;100056.00;5060398;28;19974;-60
2023/01/19 01:41:46;;;;;;;;;;;;;;;1.56;100.00;100052.97;5065223;28;20491;-62
2023/01/19 01:44:29;;;;;;;;;;;;;;;1.38;100.00;100056.09;5066099;28;19989;-60
2023/01/19 01:46:55;;;;;;;;;;;;;;;1.36;100.00;100058.13;5061398;28;19920;-60
2023/01/19 01:49:20;;;;;;;;;;;;;;;1.41;100.00;100063.81;5067746;28;19916;-60
2023/01/19 01:51:47;;;;;;;;;;;;;;;1.28;100.00;100061.81;5064958;28;19920;-60
2023/01/19 01:54:18;;;;;;;;;;;;;;;1.28;100.00;100060.97;5066182;28;20018;-61
2023/01/19 01:56:45;;;;;;;;;;;;;;;1.41;100.00;100069.22;5064308;28;20509;-60
2023/01/19 01:59:16;;;;;;;;;;;;;;;1.23;100.00;100066.94;5064052;28;19920;-60
2023/01/19 02:04:15;;;;;;;;;;;;;;;1.10;100.00;100060.53;5012449;28;19925;-62
2023/01/19 02:14:54;;;;;;;;;;;;;;;0.96;100.00;100073.91;5012363;28;19932;-60
2023/01/19 02:17:20;;;;;;;;;;;;;;;1.20;100.00;100071.91;5053625;28;19921;-62
2023/01/19 02:19:45;;;;;;;;;;;;;;;0.88;100.00;100073.97;5025386;28;19988;-60
2023/01/19 02:22:10;;;;;;;;;;;;;;;1.14;100.00;100073.50;5024598;28;19921;-60
2023/01/19 02:24:35;;;;;;;;;;;;;;;1.07;100.00;100079.84;5016345;28;19998;-62
2023/01/19 02:27:01;;;;;;;;;;;;;;;0.80;100.00;100073.22;5023408;28;19944;-59
2023/01/19 02:29:27;;;;;;;;;;;;;;;0.87;100.00;100079.59;5021575;28;19928;-60
2023/01/19 02:31:54;;;;;;;;;;;;;;;0.72;100.00;100085.81;5024087;28;19921;-60
2023/01/19 02:36:55;;;;;;;;;;;;;;;0.60;100.00;100084.56;4457025;28;19968;-60
2023/01/19 02:39:30;;;;;;;;;;;;;;;0.54;100.00;100090.72;5035432;28;19996;-60
2023/01/19 02:42:00;;;;;;;;;;;;;;;0.54;100.00;100089.88;5041573;28;19925;-60
2023/01/19 02:44:26;;;;;;;;;;;;;;;0.79;100.00;100091.31;5043763;28;19922;-60
2023/01/19 02:46:55;;;;;;;;;;;;;;;0.48;100.00;100092.31;5038311;28;19963;-60
2023/01/19 02:49:20;;;;;;;;;;;;;;;0.52;100.00;100098.19;5045201;28;20146;-60
2023/01/19 02:51:45;;;;;;;;;;;;;;;0.36;100.00;100091.09;5043593;28;19921;-59
2023/01/19 02:54:26;;;;;;;;;;;;;;;0.40;100.00;100097.78;5049094;28;19920;-62
2023/01/19 02:57:00;;;;;;;;;;;;;;;0.40;100.00;100097.78;5049414;28;19916;-61
2023/01/19 02:59:31;;;;;;;;;;;;;;;0.42;100.00;100098.44;5050350;28;20383;-60
2023/01/19 03:02:03;;;;;;;;;;;;;;;0.46;100.00;100099.78;5047886;28;19909;-59
2023/01/19 03:04:28;;;;;;;;;;;;;;;0.32;100.00;100107.84;5048333;28;19982;-61
2023/01/19 03:07:05;;;;;;;;;;;;;;;0.40;100.00;100110.44;5048312;28;19992;-62
2023/01/19 03:09:37;;;;;;;;;;;;;;;0.47;100.00;100119.50;5043792;28;19928;-63
2023/01/19 03:12:13;;;;;;;;;;;;;;;0.32;100.00;100114.06;5049501;28;19956;-60
2023/01/19 03:14:41;;;;;;;;;;;;;;;0.31;100.00;100123.19;5050791;28;20370;-59
2023/01/19 03:17:08;;;;;;;;;;;;;;;0.49;100.00;100120.16;5049609;28;19913;-59
2023/01/19 03:19:36;;;;;;;;;;;;;;;0.47;100.00;100117.66;5050114;28;19975;-59
2023/01/19 03:22:04;;;;;;;;;;;;;;;0.44;100.00;100131.50;5049880;28;20318;-62
2023/01/19 03:24:32;;;;;;;;;;;;;;;0.30;100.00;100129.59;5050965;28;19917;-60
2023/01/19 03:27:00;;;;;;;;;;;;;;;0.44;100.00;100144.19;5050337;28;19925;-60
2023/01/19 03:29:28;;;;;;;;;;;;;;;0.20;100.00;100137.97;5048635;28;19920;-59
2023/01/19 03:31:55;;;;;;;;;;;;;;;0.25;100.00;100140.09;5049697;28;19927;-59
2023/01/19 03:34:22;;;;;;;;;;;;;;;0.32;100.00;100140.25;5049237;28;19920;-62
2023/01/19 03:36:50;;;;;;;;;;;;;;;0.22;100.00;100140.50;5047222;28;19963;-61
2023/01/19 03:39:20;;;;;;;;;;;;;;;0.21;100.00;100144.22;5048517;28;19921;-60
2023/01/19 03:41:47;;;;;;;;;;;;;;;0.10;100.00;100158.13;5049366;28;19973;-59
2023/01/19 03:44:12;;;;;;;;;;;;;;;0.03;100.00;100159.88;5050477;28;19924;-60
2023/01/19 03:46:38;;;;;;;;;;;;;;;0.06;100.00;100170.31;5049067;28;19921;-61
2023/01/19 03:49:03;;;;;;;;;;;;;;;0.12;100.00;100166.91;5049001;28;19921;-62
2023/01/19 03:51:29;;;;;;;;;;;;;;;0.03;100.00;100173.38;5049507;28;20283;-60
2023/01/19 03:53:54;;;;;;;;;;;;;;;0.02;100.00;100179.78;5048319;28;20424;-60
2023/01/19 03:56:21;;;;;;;;;;;;;;;-0.01;100.00;100183.66;5046286;28;20322;-59
2023/01/19 03:58:46;;;;;;;;;;;;;;;-0.02;100.00;100184.69;5049943;28;20007;-59
2023/01/19 04:01:12;;;;;;;;;;;;;;;-0.05;100.00;100188.59;5033111;28;20012;-60
2023/01/19 04:03:37;;;;;;;;;;;;;;;-0.07;100.00;100189.78;5041273;28;19956;-62
2023/01/19 04:06:02;;;;;;;;;;;;;;;-0.03;100.00;100200.06;5047869;28;19948;-60
2023/01/19 04:08:28;;;;;;;;;;;;;;;-0.07;100.00;100193.31;5047882;28;20018;-60
2023/01/19 04:10:53;;;;;;;;;;;;;;;-0.05;100.00;100191.31;5048420;28;19927;-59
2023/01/19 04:13:18;;;;;;;;;;;;;;;-0.05;100.00;100188.59;5049710;28;19924;-62
2023/01/19 04:15:43;;;;;;;;;;;;;;;-0.08;100.00;100190.81;5047790;28;19924;-62
2023/01/19 04:18:08;;;;;;;;;;;;;;;-0.05;100.00;100191.31;5049287;28;19936;-59
2023/01/19 04:20:36;;;;;;;;;;;;;;;0.05;100.00;100196.47;5044886;28;20294;-60
2023/01/19 04:23:01;;;;;;;;;;;;;;;0.10;100.00;100198.63;5048052;28;20020;-60
2023/01/19 04:25:26;;;;;;;;;;;;;;;0.17;100.00;100203.13;5048293;28;20075;-60
2023/01/19 04:27:52;;;;;;;;;;;;;;;-0.02;100.00;100204.44;5048860;28;19924;-59
2023/01/19 04:30:18;;;;;;;;;;;;;;;-0.02;100.00;100192.78;5047870;28;20270;-61
2023/01/19 04:32:43;;;;;;;;;;;;;;;-0.01;100.00;100208.81;5048142;28;19924;-61
2023/01/19 04:35:08;;;;;;;;;;;;;;;0.06;100.00;100206.25;5048028;28;19947;-59
2023/01/19 04:37:33;;;;;;;;;;;;;;;0.23;100.00;100201.56;5046731;28;20302;-62
2023/01/19 04:39:59;;;;;;;;;;;;;;;0.16;100.00;100201.47;5047086;28;19925;-61
2023/01/19 04:42:24;;;;;;;;;;;;;;;0.00;100.00;100217.78;5048346;28;19936;-60
2023/01/19 04:44:49;;;;;;;;;;;;;;;-0.05;100.00;100215.59;5043528;28;19921;-61
2023/01/19 04:47:14;;;;;;;;;;;;;;;0.01;100.00;100210.50;5047196;28;19970;-59
2023/01/19 04:49:39;;;;;;;;;;;;;;;0.18;100.00;100198.56;5045294;28;19976;-63
2023/01/19 04:52:05;;;;;;;;;;;;;;;0.41;100.00;100168.88;5047373;28;20351;-61
2023/01/19 04:54:31;;;;;;;;;;;;;;;-0.04;100.00;100147.09;5048793;28;19950;-60
2023/01/19 04:56:56;;;;;;;;;;;;;;;-0.04;100.00;100136.28;5046580;28;19951;-60
2023/01/19 04:59:21;;;;;;;;;;;;;;;0.11;100.00;100124.72;5045382;28;19936;-61
2023/01/19 05:01:47;;;;;;;;;;;;;;;0.20;100.00;100143.38;5037857;28;19925;-60
2023/01/19 05:04:12;;;;;;;;;;;;;;;0.07;100.00;100153.94;5045570;28;19954;-60
2023/01/19 05:06:37;;;;;;;;;;;;;;;0.02;100.00;100147.41;5046448;28;19939;-63
2023/01/19 05:09:02;;;;;;;;;;;;;;;0.04;100.00;100137.25;5045082;28;19925;-60
2023/01/19 05:11:27;;;;;;;;;;;;;;;0.01;100.00;100137.63;5039714;28;19925;-61
2023/01/19 05:13:53;;;;;;;;;;;;;;;0.21;100.00;100138.81;5043856;28;19921;-61
2023/01/19 05:16:18;;;;;;;;;;;;;;;0.01;100.00;100143.84;5040516;28;19972;-60
2023/01/19 05:18:43;;;;;;;;;;;;;;;0.03;100.00;100143.66;5045946;28;20003;-60
2023/01/19 05:21:08;;;;;;;;;;;;;;;-0.01;100.00;100141.31;5047092;28;20299;-60
2023/01/19 05:23:33;;;;;;;;;;;;;;;0.04;100.00;100150.75;5046230;28;19921;-60
2023/01/19 05:26:00;;;;;;;;;;;;;;;0.07;100.00;100153.09;5047119;28;19970;-60
2023/01/19 05:28:26;;;;;;;;;;;;;;;-0.02;100.00;100160.41;5046306;28;19921;-60
2023/01/19 05:30:51;;;;;;;;;;;;;;;0.02;100.00;100166.28;5047340;28;19925;-59
2023/01/19 05:33:17;;;;;;;;;;;;;;;-0.05;100.00;100171.53;5046587;28;19943;-62
2023/01/19 05:35:42;;;;;;;;;;;;;;;0.01;100.00;100180.81;5045907;28;19932;-61
2023/01/19 05:38:07;;;;;;;;;;;;;;;0.08;100.00;100170.97;5044747;28;19932;-60
2023/01/19 05:40:32;;;;;;;;;;;;;;;0.11;100.00;100184.97;5047354;28;19939;-61
2023/01/19 05:43:00;;;;;;;;;;;;;;;0.20;100.00;100188.41;5046928;28;19917;-60
2023/01/19 05:45:27;;;;;;;;;;;;;;;0.08;100.00;100185.31;5045769;28;20232;-59
2023/01/19 05:47:52;;;;;;;;;;;;;;;0.34;100.00;100189.50;5046321;28;19925;-60
2023/01/19 05:50:18;;;;;;;;;;;;;;;0.24;100.00;100195.16;5046940;28;19921;-61
2023/01/19 05:52:43;;;;;;;;;;;;;;;0.16;100.00;100198.75;5047809;28;19979;-60
2023/01/19 05:55:08;;;;;;;;;;;;;;;0.13;100.00;100207.19;5033549;28;19927;-59
2023/01/19 05:57:33;;;;;;;;;;;;;;;0.19;100.00;100211.03;5043904;28;19924;-59
2023/01/19 05:59:59;;;;;;;;;;;;;;;0.15;100.00;100207.03;5035036;28;19921;-60
2023/01/19 06:02:27;;;;;;;;;;;;;;;0.21;100.00;100204.47;5047384;28;20039;-61
2023/01/19 06:04:52;;;;;;;;;;;;;;;0.17;100.00;100202.28;5044464;28;19931;-60
2023/01/19 06:07:17;;;;;;;;;;;;;;;0.12;100.00;100200.13;5043735;28;19916;-60
2023/01/19 06:09:42;;;;;;;;;;;;;;;0.26;100.00;100203.94;5044529;28;20010;-62
2023/01/19 06:12:08;;;;;;;;;;;;;;;0.13;100.00;100209.91;5046624;28;19923;-59
2023/01/19 06:14:35;;;;;;;;;;;;;;;0.19;100.00;100205.66;5046106;28;19920;-61
2023/01/19 06:17:01;;;;;;;;;;;;;;;0.13;100.00;100209.91;5037060;28;19921;-59
2023/01/19 06:19:26;;;;;;;;;;;;;;;0.27;100.00;100219.09;5044736;28;19912;-61
2023/01/19 06:21:51;;;;;;;;;;;;;;;0.13;100.00;100217.16;5045298;28;19929;-60
2023/01/19 06:24:16;;;;;;;;;;;;;;;0.19;100.00;100227.25;5046338;28;19921;-59
2023/01/19 06:26:44;;;;;;;;;;;;;;;0.22;100.00;100227.75;5044942;28;19925;-60
2023/01/19 06:29:11;;;;;;;;;;;;;;;0.42;100.00;100244.31;5051251;28;19912;-59
2023/01/19 06:31:36;;;;;;;;;;;;;;;0.29;100.00;100238.66;5042156;28;19925;-60
2023/01/19 06:34:01;;;;;;;;;;;;;;;0.26;100.00;100239.03;5042352;28;19923;-60
2023/01/19 06:36:27;;;;;;;;;;;;;;;0.36;100.00;100242.34;5050253;28;19966;-59
2023/01/19 06:38:52;;;;;;;;;;;;;;;0.27;100.00;100246.13;5049776;28;19994;-59
2023/01/19 06:41:17;;;;;;;;;;;;;;;0.41;100.00;100250.75;5051209;28;19913;-61
2023/01/19 06:43:42;;;;;;;;;;;;;;;0.29;100.00;100254.03;5050985;28;19917;-60
2023/01/19 06:46:07;;;;;;;;;;;;;;;0.25;100.00;100253.53;5051241;28;20027;-60
2023/01/19 06:48:32;;;;;;;;;;;;;;;0.23;100.00;100261.81;5047573;28;19921;-60
2023/01/19 06:50:58;;;;;;;;;;;;;;;0.30;100.00;100263.81;5036495;28;20319;-61
2023/01/19 06:53:26;;;;;;;;;;;;;;;0.40;100.00;100275.22;5028465;28;19921;-60
2023/01/19 06:55:51;;;;;;;;;;;;;;;0.34;100.00;100274.06;5029562;28;19959;-59
2023/01/19 06:58:16;;;;;;;;;;;;;;;0.31;100.00;100273.63;5041503;28;19990;-59
2023/01/19 07:00:42;;;;;;;;;;;;;;;0.56;100.00;100276.97;5048175;28;19920;-59
2023/01/19 07:03:07;;;;;;;;;;;;;;;0.30;100.00;100283.53;5032466;28;19932;-60
2023/01/19 07:05:33;;;;;;;;;;;;;;;0.34;100.00;100276.78;5036640;28;19924;-61
2023/01/19 07:07:58;;;;;;;;;;;;;;;0.35;100.00;100286.56;5038354;28;19941;-59
2023/01/19 07:10:24;;;;;;;;;;;;;;;0.32;100.00;100286.94;5043229;28;19932;-62
2023/01/19 07:12:49;;;;;;;;;;;;;;;0.34;100.00;100294.84;5038016;28;19921;-61
2023/01/19 07:15:16;;;;;;;;;;;;;;;0.50;100.00;100298.28;5033386;28;20057;-61
2023/01/19 07:17:41;;;;;;;;;;;;;;;0.41;100.00;100298.53;5048912;28;19928;-63
2023/01/19 07:20:08;;;;;;;;;;;;;;;0.55;100.00;100294.19;5040357;28;19921;-61
2023/01/19 07:22:33;;;;;;;;;;;;;;;0.46;100.00;100296.97;5041616;28;19913;-63
2023/01/19 07:24:58;;;;;;;;;;;;;;;0.47;100.00;100295.13;5044666;28;19920;-61
2023/01/19 07:27:26;;;;;;;;;;;;;;;0.44;100.00;100304.41;5042743;28;19929;-63
2023/01/19 07:29:51;;;;;;;;;;;;;;;0.44;100.00;100312.50;5040122;28;19946;-61
2023/01/19 07:32:16;;;;;;;;;;;;;;;0.45;100.00;100311.47;5034391;28;19929;-61
2023/01/19 07:34:41;;;;;;;;;;;;;;;0.43;100.00;100315.41;5042079;28;19925;-62
2023/01/19 07:37:06;;;;;;;;;;;;;;;0.42;100.00;100319.97;5041337;28;19970;-60
2023/01/19 07:39:32;;;;;;;;;;;;;;;0.41;100.00;100323.69;5037582;28;20389;-62
2023/01/19 07:41:57;;;;;;;;;;;;;;;0.52;100.00;100323.28;5045016;28;19925;-61
2023/01/19 07:44:22;;;;;;;;;;;;;;;0.50;100.00;100322.59;5041654;28;19927;-60
2023/01/19 07:46:49;;;;;;;;;;;;;;;0.54;100.00;100328.50;5028650;28;19932;-62
2023/01/19 07:49:15;;;;;;;;;;;;;;;0.47;100.00;100335.63;5037640;28;19932;-61
2023/01/19 07:51:40;;;;;;;;;;;;;;;0.54;100.00;100339.28;5042231;28;19963;-63
2023/01/19 07:54:07;;;;;;;;;;;;;;;0.49;100.00;100337.13;5044162;28;19936;-66
2023/01/19 07:56:32;;;;;;;;;;;;;;;0.48;100.00;100357.06;5042039;28;19921;-62
2023/01/19 07:58:57;;;;;;;;;;;;;;;0.46;100.00;100353.72;5034399;28;19921;-64
2023/01/19 08:01:22;;;;;;;;;;;;;;;0.63;100.00;100348.19;5039149;28;20295;-62
2023/01/19 08:03:48;;;;;;;;;;;;;;;0.51;100.00;100354.03;5037416;28;19975;-62
2023/01/19 08:06:20;;;;;;;;;;;;;;;0.49;100.00;100363.31;5044107;28;19978;-62
2023/01/19 08:08:45;;;;;;;;;;;;;;;0.58;100.00;100362.25;5037496;28;20091;-62
2023/01/19 08:11:10;;;;;;;;;;;;;;;0.64;100.00;100371.50;5049245;28;19959;-62
2023/01/19 08:13:36;;;;;;;;;;;;;;;0.54;100.00;100362.78;5042240;28;19924;-63
2023/01/19 08:16:01;;;;;;;;;;;;;;;0.60;100.00;100378.28;5047745;28;20343;-64
2023/01/19 08:18:26;;;;;;;;;;;;;;;0.56;100.00;100390.44;5037574;28;19913;-62
2023/01/19 08:20:52;;;;;;;;;;;;;;;0.59;100.00;100388.25;5042189;28;20401;-62
2023/01/19 08:23:17;;;;;;;;;;;;;;;0.64;100.00;100390.41;5046350;28;19927;-63
2023/01/19 08:25:43;;;;;;;;;;;;;;;0.65;100.00;100406.44;5038990;28;20011;-62
2023/01/19 08:28:09;;;;;;;;;;;;;;;0.74;100.00;100408.09;5043593;28;20359;-62
2023/01/19 08:30:35;;;;;;;;;;;;;;;0.78;100.00;100425.63;5043170;28;19921;-62
2023/01/19 08:33:03;;;;;;;;;;;;;;;0.78;100.00;100424.81;5048215;28;20019;-63
2023/01/19 08:35:36;;;;;;;;;;;;;;;0.83;100.00;100429.69;5032390;28;19979;-63
2023/01/19 08:38:01;;;;;;;;;;;;;;;0.86;100.00;100435.53;5039312;28;19921;-64
2023/01/19 08:40:28;;;;;;;;;;;;;;;0.86;100.00;100446.38;5045904;28;20379;-64
2023/01/19 08:42:59;;;;;;;;;;;;;;;0.89;100.00;100451.44;5046131;28;19905;-63
2023/01/19 08:45:24;;;;;;;;;;;;;;;0.87;100.00;100447.22;5038303;28;19943;-63
2023/01/19 08:47:49;;;;;;;;;;;;;;;0.86;100.00;100448.22;5045897;28;20008;-63
2023/01/19 08:50:15;;;;;;;;;;;;;;;0.87;100.00;100448.06;5042687;28;19920;-63
2023/01/19 08:52:40;;;;;;;;;;;;;;;0.85;100.00;100455.50;5047837;28;19917;-63
2023/01/19 08:55:05;;;;;;;;;;;;;;;0.88;100.00;100454.31;5043084;28;20470;-63
2023/01/19 08:57:31;;;;;;;;;;;;;;;0.88;100.00;100451.63;5048849;28;19921;-64
2023/01/19 08:59:56;;;;;;;;;;;;;;;0.91;100.00;100459.34;5047998;28;19968;-64
2023/01/19 09:02:21;;;;;;;;;;;;;;;0.94;100.00;100459.00;5046866;28;20284;-64
2023/01/19 09:04:46;;;;;;;;;;;;;;;1.00;100.00;100461.84;5026279;28;19925;-63
2023/01/19 09:07:11;;;;;;;;;;;;;;;0.99;100.00;100452.03;5027220;28;19970;-63
2023/01/19 09:09:39;;;;;;;;;;;;;;;1.00;100.00;100463.69;5027334;28;19917;-61
2023/01/19 09:12:04;;;;;;;;;;;;;;;1.02;100.00;100462.50;5028204;28;19924;-60
2023/01/19 09:14:29;;;;;;;;;;;;;;;1.07;100.00;100459.28;5042221;28;19920;-61
2023/01/19 09:16:55;;;;;;;;;;;;;;;1.12;100.00;100465.00;5045184;28;19948;-60
2023/01/19 09:19:20;;;;;;;;;;;;;;;1.49;100.00;100463.38;5046425;28;19933;-62
2023/01/19 09:21:45;;;;;;;;;;;;;;;1.53;100.00;100459.28;5046377;28;20011;-61
2023/01/19 09:24:10;;;;;;;;;;;;;;;1.42;100.00;100460.56;5047665;28;19923;-61
2023/01/19 09:26:36;;;;;;;;;;;;;;;1.42;100.00;100465.09;5048384;28;19921;-64
2023/01/19 09:29:01;;;;;;;;;;;;;;;1.45;100.00;100467.47;5048116;28;19952;-61
2023/01/19 09:31:26;;;;;;;;;;;;;;;1.40;100.00;100477.97;5048239;28;19921;-61
2023/01/19 09:33:51;;;;;;;;;;;;;;;1.56;100.00;100469.72;5045534;28;20074;-61
2023/01/19 09:36:16;;;;;;;;;;;;;;;1.40;100.00;100469.88;5046420;28;19921;-61
2023/01/19 09:38:42;;;;;;;;;;;;;;;1.45;100.00;100470.16;5047455;28;20027;-60
2023/01/19 09:41:14;;;;;;;;;;;;;;;1.55;100.00;100479.72;5048130;28;19917;-62
2023/01/19 09:43:50;;;;;;;;;;;;;;;1.49;100.00;100476.91;5047259;28;19927;-60
2023/01/19 09:46:19;;;;;;;;;;;;;;;1.43;100.00;100478.47;5038167;28;19927;-61
2023/01/19 09:48:50;;;;;;;;;;;;;;;1.39;100.00;100479.84;5047883;28;19966;-60
2023/01/19 09:51:17;;;;;;;;;;;;;;;1.46;100.00;100483.50;5047212;28;19959;-60
2023/01/19 09:53:42;;;;;;;;;;;;;;;1.51;100.00;100491.09;5040698;28;19931;-63
2023/01/19 09:56:14;;;;;;;;;;;;;;;1.63;100.00;100486.94;5043185;28;20011;-63
2023/01/19 09:58:40;;;;;;;;;;;;;;;1.96;100.00;100494.78;5044668;28;19921;-63
2023/01/19 10:01:11;;;;;;;;;;;;;;;2.32;100.00;100493.06;5047982;28;19923;-63
2023/01/19 10:03:40;;;;;;;;;;;;;;;2.62;100.00;100492.22;5039107;28;19928;-64
2023/01/19 10:06:07;;;;;;;;;;;;;;;2.83;100.00;100500.44;5042179;28;20287;-63
2023/01/19 10:08:38;;;;;;;;;;;;;;;3.61;100.00;100506.97;5029682;28;19929;-64
2023/01/19 10:11:08;;;;;;;;;;;;;;;4.51;100.00;100498.09;5034038;28;19939;-63
2023/01/19 10:13:47;;;;;;;;;;;;;;;5.28;99.01;100496.16;5042463;28;19928;-63
2023/01/19 10:16:15;;;;;;;;;;;;;;;5.96;89.78;100489.56;5037880;28;19921;-62
2023/01/19 10:18:44;;;;;;;;;;;;;;;6.72;90.63;100490.94;5040825;28;20363;-64
2023/01/19 10:21:18;;;;;;;;;;;;;;;7.32;92.05;100498.91;5038621;28;19921;-63
2023/01/19 10:23:43;;;;;;;;;;;;;;;8.05;84.24;100493.78;5039878;28;19917;-63
2023/01/19 10:26:14;;;;;;;;;;;;;;;8.39;84.82;100488.91;5044224;28;19970;-62
2023/01/19 10:28:39;;;;;;;;;;;;;;;8.91;81.32;100487.50;5042410;28;19959;-62
2023/01/19 10:31:06;;;;;;;;;;;;;;;9.39;77.72;100491.34;5041875;28;19983;-63
2023/01/19 10:33:32;;;;;;;;;;;;;;;9.34;78.67;100497.50;5038202;28;19920;-64
2023/01/19 10:35:57;;;;;;;;;;;;;;;8.92;78.67;100493.81;5045165;28;19978;-63
2023/01/19 10:38:23;;;;;;;;;;;;;;;8.82;77.59;100495.19;5038029;28;20589;-62
2023/01/19 10:40:52;;;;;;;;;;;;;;;8.61;78.92;100490.16;5030907;28;19913;-62
2023/01/19 10:43:46;;;;;;;;;;;;;;;9.01;79.34;100496.00;5036811;28;19936;-63
2023/01/19 10:46:18;;;;;;;;;;;;;;;9.58;75.64;100493.81;5031035;28;19917;-63
2023/01/19 10:48:46;;;;;;;;;;;;;;;9.84;73.08;100492.56;5044143;28;19928;-63
2023/01/19 10:51:11;;;;;;;;;;;;;;;10.30;72.27;100495.66;5038388;28;19913;-62
2023/01/19 10:53:37;;;;;;;;;;;;;;;10.80;70.06;100490.53;5028619;28;19928;-65
2023/01/19 10:56:14;;;;;;;;;;;;;;;11.68;70.69;100491.19;5041348;28;19921;-64
2023/01/19 10:58:39;;;;;;;;;;;;;;;12.00;63.62;100499.78;5038440;28;19944;-63
2023/01/19 11:01:12;;;;;;;;;;;;;;;12.00;64.59;100502.53;5029530;28;19925;-62
2023/01/19 11:03:38;;;;;;;;;;;;;;;12.29;64.55;100500.53;5035725;28;19943;-66
2023/01/19 11:06:23;;;;;;;;;;;;;;;12.65;62.90;100490.06;5043722;28;19924;-62
2023/01/19 11:08:50;;;;;;;;;;;;;;;13.45;65.01;100489.50;5045621;28;19924;-62
2023/01/19 11:11:16;;;;;;;;;;;;;;;13.89;63.04;100494.06;5046705;28;19960;-63
2023/01/19 11:13:41;;;;;;;;;;;;;;;14.21;59.29;100491.34;5045293;28;19964;-63
2023/01/19 11:16:15;;;;;;;;;;;;;;;13.94;57.45;100503.28;5050404;28;20314;-65
2023/01/19 11:18:41;;;;;;;;;;;;;;;13.46;59.36;100496.69;5049149;28;20437;-62
2023/01/19 11:21:10;;;;;;;;;;;;;;;13.56;61.64;100501.47;5050183;28;19946;-65
2023/01/19 11:23:40;;;;;;;;;;;;;;;13.90;59.90;100502.13;5048448;28;19965;-63
2023/01/19 11:26:07;;;;;;;;;;;;;;;14.41;59.04;100501.72;5050992;28;20310;-62
2023/01/19 11:28:36;;;;;;;;;;;;;;;14.90;58.20;100504.28;5049957;28;19920;-62
2023/01/19 11:31:15;;;;;;;;;;;;;;;14.85;57.26;100496.81;5048853;28;19920;-65
2023/01/19 11:33:42;;;;;;;;;;;;;;;14.69;56.86;100495.88;5038724;28;19928;-64
2023/01/19 11:36:18;;;;;;;;;;;;;;;14.58;55.24;100488.63;5044984;28;19921;-66
2023/01/19 11:38:49;;;;;;;;;;;;;;;14.45;56.43;100500.94;5043973;28;19921;-63
2023/01/19 11:41:19;;;;;;;;;;;;;;;14.33;57.58;100497.50;5044890;28;19967;-63
2023/01/19 11:43:45;;;;;;;;;;;;;;;14.34;56.08;100501.09;5037430;28;19928;-64
2023/01/19 11:46:12;;;;;;;;;;;;;;;14.59;56.10;100493.03;5037463;28;19925;-63
2023/01/19 11:49:00;;;;;;;;;;;;;;;14.89;55.76;100491.56;5039214;28;19928;-66
2023/01/19 11:51:29;;;;;;;;;;;;;;;14.53;55.01;100494.94;5041644;28;20338;-63
2023/01/19 11:53:54;;;;;;;;;;;;;;;14.20;56.20;100496.03;5047446;28;20431;-63
2023/01/19 11:56:24;;;;;;;;;;;;;;;13.95;56.75;100510.44;5049500;28;20019;-64
2023/01/19 11:58:50;;;;;;;;;;;;;;;13.42;58.04;100508.47;5048816;28;19921;-63
2023/01/19 12:01:23;;;;;;;;;;;;;;;13.17;58.55;100506.22;5045412;28;20304;-63
2023/01/19 12:03:56;;;;;;;;;;;;;;;12.29;59.47;100506.06;5044286;28;20417;-63
2023/01/19 12:06:26;;;;;;;;;;;;;;;11.76;58.07;100501.81;5049077;28;19927;-62
2023/01/19 12:08:54;;;;;;;;;;;;;;;11.40;62.88;100503.88;5041235;28;20287;-63
2023/01/19 12:11:26;;;;;;;;;;;;;;;11.62;60.15;100501.28;5035266;28;19967;-63
2023/01/19 12:13:52;;;;;;;;;;;;;;;11.67;59.93;100500.53;5047716;28;19920;-64
2023/01/19 12:16:22;;;;;;;;;;;;;;;11.80;60.40;100502.13;5033159;28;19921;-63
2023/01/19 12:18:51;;;;;;;;;;;;;;;11.94;59.31;100498.84;5040483;28;19964;-63
2023/01/19 12:21:16;;;;;;;;;;;;;;;12.22;58.30;100493.56;5043220;28;20007;-63
2023/01/19 12:23:52;;;;;;;;;;;;;;;12.45;57.73;100494.19;5040150;28;20007;-63
2023/01/19 12:26:26;;;;;;;;;;;;;;;12.63;57.78;100500.53;5039433;28;19939;-63
2023/01/19 12:28:53;;;;;;;;;;;;;;;12.70;57.01;100499.25;5047296;28;19923;-64
2023/01/19 12:31:20;;;;;;;;;;;;;;;12.59;56.30;100504.88;5042629;28;19924;-63
2023/01/19 12:33:45;;;;;;;;;;;;;;;12.86;56.24;100500.28;5034399;28;19925;-64
2023/01/19 12:36:25;;;;;;;;;;;;;;;13.16;56.01;100497.13;5039531;28;19982;-63
2023/01/19 12:38:53;;;;;;;;;;;;;;;13.33;55.52;100497.09;5041093;28;19924;-63
2023/01/19 12:41:21;;;;;;;;;;;;;;;13.37;54.38;100505.66;5041399;28;19917;-63
2023/01/19 12:43:47;;;;;;;;;;;;;;;12.88;53.84;100500.88;5043084;28;19920;-64
2023/01/19 12:46:29;;;;;;;;;;;;;;;12.67;54.67;100508.03;5042807;28;20343;-65
2023/01/19 12:49:01;;;;;;;;;;;;;;;12.69;55.41;100513.28;5042918;28;20326;-63